sensor_id;sensor_type;location;lat;lon;timestamp;P1;durP1;ratioP1;P2;durP2;ratioP2
65572;SDS011;52214;50.940;13.996;2022-12-10T00:02:19;68.57;;;20.27;;
65572;SDS011;52214;50.940;13.996;2022-12-10T00:04:45;56.13;;;17.33;;
65572;SDS011;52214;50.940;13.996;2022-12-10T00:07:10;64.73;;;18.17;;
65572;SDS011;52214;50.940;13.996;2022-12-10T00:09:36;57.65;;;17.80;;
65572;SDS011;52214;50.940;13.996;2022-12-10T00:12:01;54.73;;;17.60;;
65572;SDS011;52214;50.940;13.996;2022-12-10T00:14:27;59.87;;;17.00;;
65572;SDS011;52214;50.940;13.996;2022-12-10T00:16:52;55.83;;;17.42;;
65572;SDS011;52214;50.940;13.996;2022-12-10T00:19:18;52.63;;;17.70;;
65572;SDS011;52214;50.940;13.996;2022-12-10T00:21:43;55.53;;;17.50;;
65572;SDS011;52214;50.940;13.996;2022-12-10T00:24:10;59.85;;;18.15;;
65572;SDS011;52214;50.940;13.996;2022-12-10T00:26:37;56.83;;;16.92;;
65572;SDS011;52214;50.940;13.996;2022-12-10T00:29:04;52.97;;;15.77;;
65572;SDS011;52214;50.940;13.996;2022-12-10T00:31:32;60.47;;;17.48;;
65572;SDS011;52214;50.940;13.996;2022-12-10T00:34:00;54.53;;;17.30;;
65572;SDS011;52214;50.940;13.996;2022-12-10T00:36:29;53.63;;;17.70;;
65572;SDS011;52214;50.940;13.996;2022-12-10T00:39:00;62.00;;;17.73;;
65572;SDS011;52214;50.940;13.996;2022-12-10T00:41:26;59.22;;;18.05;;
65572;SDS011;52214;50.940;13.996;2022-12-10T00:43:51;63.13;;;17.70;;
65572;SDS011;52214;50.940;13.996;2022-12-10T00:46:17;55.17;;;17.53;;
65572;SDS011;52214;50.940;13.996;2022-12-10T00:48:44;46.42;;;14.60;;
65572;SDS011;52214;50.940;13.996;2022-12-10T00:51:11;59.72;;;17.88;;
65572;SDS011;52214;50.940;13.996;2022-12-10T00:53:40;56.42;;;18.17;;
65572;SDS011;52214;50.940;13.996;2022-12-10T00:56:07;56.10;;;17.53;;
65572;SDS011;52214;50.940;13.996;2022-12-10T00:58:34;58.90;;;17.83;;
65572;SDS011;52214;50.940;13.996;2022-12-10T01:01:09;48.88;;;16.05;;
65572;SDS011;52214;50.940;13.996;2022-12-10T01:03:42;63.97;;;19.00;;
65572;SDS011;52214;50.940;13.996;2022-12-10T01:06:10;54.37;;;17.53;;
65572;SDS011;52214;50.940;13.996;2022-12-10T01:08:37;53.40;;;16.33;;
65572;SDS011;52214;50.940;13.996;2022-12-10T01:11:03;53.33;;;15.57;;
65572;SDS011;52214;50.940;13.996;2022-12-10T01:13:29;53.90;;;16.33;;
65572;SDS011;52214;50.940;13.996;2022-12-10T01:15:55;56.60;;;17.57;;
65572;SDS011;52214;50.940;13.996;2022-12-10T01:18:21;56.58;;;16.95;;
65572;SDS011;52214;50.940;13.996;2022-12-10T01:20:46;57.27;;;17.13;;
65572;SDS011;52214;50.940;13.996;2022-12-10T01:23:12;50.03;;;15.60;;
65572;SDS011;52214;50.940;13.996;2022-12-10T01:25:37;55.28;;;16.90;;
65572;SDS011;52214;50.940;13.996;2022-12-10T01:28:03;52.50;;;16.20;;
65572;SDS011;52214;50.940;13.996;2022-12-10T01:30:29;61.63;;;18.00;;
65572;SDS011;52214;50.940;13.996;2022-12-10T01:32:54;60.63;;;17.73;;
65572;SDS011;52214;50.940;13.996;2022-12-10T01:35:20;53.57;;;16.33;;
65572;SDS011;52214;50.940;13.996;2022-12-10T01:37:45;57.37;;;17.63;;
65572;SDS011;52214;50.940;13.996;2022-12-10T01:40:11;55.47;;;16.42;;
65572;SDS011;52214;50.940;13.996;2022-12-10T01:42:37;55.43;;;16.13;;
65572;SDS011;52214;50.940;13.996;2022-12-10T01:45:04;52.70;;;15.97;;
65572;SDS011;52214;50.940;13.996;2022-12-10T01:47:33;56.08;;;15.95;;
65572;SDS011;52214;50.940;13.996;2022-12-10T01:49:58;62.28;;;16.75;;
65572;SDS011;52214;50.940;13.996;2022-12-10T01:52:25;55.13;;;16.53;;
65572;SDS011;52214;50.940;13.996;2022-12-10T01:54:51;57.65;;;16.15;;
65572;SDS011;52214;50.940;13.996;2022-12-10T01:57:18;53.10;;;16.50;;
65572;SDS011;52214;50.940;13.996;2022-12-10T01:59:53;49.90;;;15.60;;
65572;SDS011;52214;50.940;13.996;2022-12-10T02:02:24;56.00;;;15.48;;
65572;SDS011;52214;50.940;13.996;2022-12-10T02:05:16;56.72;;;16.35;;
65572;SDS011;52214;50.940;13.996;2022-12-10T02:13:27;57.73;;;16.67;;
65572;SDS011;52214;50.940;13.996;2022-12-10T02:16:03;47.90;;;14.10;;
65572;SDS011;52214;50.940;13.996;2022-12-10T02:18:37;52.73;;;14.77;;
65572;SDS011;52214;50.940;13.996;2022-12-10T02:21:08;50.85;;;13.95;;
65572;SDS011;52214;50.940;13.996;2022-12-10T02:23:43;49.58;;;16.45;;
65572;SDS011;52214;50.940;13.996;2022-12-10T02:26:15;55.75;;;15.80;;
65572;SDS011;52214;50.940;13.996;2022-12-10T02:31:46;49.37;;;14.93;;
65572;SDS011;52214;50.940;13.996;2022-12-10T02:34:15;45.63;;;14.07;;
65572;SDS011;52214;50.940;13.996;2022-12-10T02:36:43;48.38;;;14.55;;
65572;SDS011;52214;50.940;13.996;2022-12-10T02:39:12;45.50;;;14.18;;
65572;SDS011;52214;50.940;13.996;2022-12-10T02:41:42;44.23;;;11.83;;
65572;SDS011;52214;50.940;13.996;2022-12-10T02:44:14;45.00;;;13.02;;
65572;SDS011;52214;50.940;13.996;2022-12-10T02:46:42;43.45;;;13.52;;
65572;SDS011;52214;50.940;13.996;2022-12-10T02:49:11;43.35;;;13.13;;
65572;SDS011;52214;50.940;13.996;2022-12-10T02:51:39;41.88;;;13.55;;
65572;SDS011;52214;50.940;13.996;2022-12-10T02:54:07;42.00;;;13.20;;
65572;SDS011;52214;50.940;13.996;2022-12-10T02:57:01;36.50;;;10.23;;
65572;SDS011;52214;50.940;13.996;2022-12-10T03:00:07;36.35;;;11.95;;
65572;SDS011;52214;50.940;13.996;2022-12-10T03:08:10;40.30;;;10.85;;
65572;SDS011;52214;50.940;13.996;2022-12-10T03:11:13;35.95;;;12.00;;
65572;SDS011;52214;50.940;13.996;2022-12-10T03:13:54;32.88;;;10.77;;
65572;SDS011;52214;50.940;13.996;2022-12-10T03:16:25;35.97;;;11.95;;
65572;SDS011;52214;50.940;13.996;2022-12-10T03:18:57;34.87;;;11.47;;
65572;SDS011;52214;50.940;13.996;2022-12-10T03:21:26;42.47;;;11.15;;
65572;SDS011;52214;50.940;13.996;2022-12-10T03:23:54;32.80;;;10.77;;
65572;SDS011;52214;50.940;13.996;2022-12-10T03:26:20;36.73;;;11.63;;
65572;SDS011;52214;50.940;13.996;2022-12-10T03:28:49;39.85;;;11.95;;
65572;SDS011;52214;50.940;13.996;2022-12-10T03:31:17;38.03;;;11.13;;
65572;SDS011;52214;50.940;13.996;2022-12-10T03:33:45;35.70;;;10.77;;
65572;SDS011;52214;50.940;13.996;2022-12-10T03:36:13;36.10;;;12.07;;
65572;SDS011;52214;50.940;13.996;2022-12-10T03:38:39;37.08;;;11.23;;
65572;SDS011;52214;50.940;13.996;2022-12-10T03:41:06;35.88;;;11.43;;
65572;SDS011;52214;50.940;13.996;2022-12-10T03:43:31;34.80;;;10.98;;
65572;SDS011;52214;50.940;13.996;2022-12-10T03:45:57;33.53;;;11.30;;
65572;SDS011;52214;50.940;13.996;2022-12-10T03:48:23;39.73;;;11.10;;
65572;SDS011;52214;50.940;13.996;2022-12-10T03:50:48;36.77;;;10.93;;
65572;SDS011;52214;50.940;13.996;2022-12-10T03:53:14;37.33;;;11.82;;
65572;SDS011;52214;50.940;13.996;2022-12-10T03:55:39;32.37;;;11.90;;
65572;SDS011;52214;50.940;13.996;2022-12-10T03:58:05;35.00;;;12.30;;
65572;SDS011;52214;50.940;13.996;2022-12-10T04:00:30;35.35;;;11.18;;
65572;SDS011;52214;50.940;13.996;2022-12-10T04:02:56;37.37;;;10.60;;
65572;SDS011;52214;50.940;13.996;2022-12-10T04:05:21;35.27;;;11.33;;
65572;SDS011;52214;50.940;13.996;2022-12-10T04:07:47;40.33;;;12.32;;
65572;SDS011;52214;50.940;13.996;2022-12-10T04:10:12;37.63;;;12.00;;
65572;SDS011;52214;50.940;13.996;2022-12-10T04:12:38;39.20;;;12.30;;
65572;SDS011;52214;50.940;13.996;2022-12-10T04:15:04;36.63;;;12.20;;
65572;SDS011;52214;50.940;13.996;2022-12-10T04:17:48;39.63;;;11.47;;
65572;SDS011;52214;50.940;13.996;2022-12-10T04:20:14;41.08;;;11.85;;
65572;SDS011;52214;50.940;13.996;2022-12-10T04:22:58;35.53;;;11.30;;
65572;SDS011;52214;50.940;13.996;2022-12-10T04:25:41;41.13;;;12.15;;
65572;SDS011;52214;50.940;13.996;2022-12-10T04:28:25;38.30;;;13.20;;
65572;SDS011;52214;50.940;13.996;2022-12-10T04:30:51;36.47;;;12.57;;
65572;SDS011;52214;50.940;13.996;2022-12-10T04:33:17;44.83;;;13.10;;
65572;SDS011;52214;50.940;13.996;2022-12-10T04:35:42;41.97;;;13.37;;
65572;SDS011;52214;50.940;13.996;2022-12-10T04:38:08;44.30;;;13.82;;
65572;SDS011;52214;50.940;13.996;2022-12-10T04:40:33;43.17;;;13.53;;
65572;SDS011;52214;50.940;13.996;2022-12-10T04:42:59;39.77;;;12.43;;
65572;SDS011;52214;50.940;13.996;2022-12-10T04:45:24;40.17;;;13.33;;
65572;SDS011;52214;50.940;13.996;2022-12-10T04:47:50;40.92;;;12.90;;
65572;SDS011;52214;50.940;13.996;2022-12-10T04:50:15;44.70;;;13.10;;
65572;SDS011;52214;50.940;13.996;2022-12-10T04:52:41;41.38;;;12.68;;
65572;SDS011;52214;50.940;13.996;2022-12-10T04:55:07;38.10;;;11.73;;
65572;SDS011;52214;50.940;13.996;2022-12-10T04:57:32;40.97;;;12.38;;
65572;SDS011;52214;50.940;13.996;2022-12-10T04:59:58;43.37;;;12.57;;
65572;SDS011;52214;50.940;13.996;2022-12-10T05:02:24;39.30;;;13.00;;
65572;SDS011;52214;50.940;13.996;2022-12-10T05:04:49;41.90;;;13.13;;
65572;SDS011;52214;50.940;13.996;2022-12-10T05:07:15;36.80;;;11.93;;
65572;SDS011;52214;50.940;13.996;2022-12-10T05:09:40;42.43;;;13.20;;
65572;SDS011;52214;50.940;13.996;2022-12-10T05:12:06;45.28;;;12.73;;
65572;SDS011;52214;50.940;13.996;2022-12-10T05:14:32;43.60;;;14.35;;
65572;SDS011;52214;50.940;13.996;2022-12-10T05:16:57;43.37;;;13.27;;
65572;SDS011;52214;50.940;13.996;2022-12-10T05:19:23;45.45;;;12.60;;
65572;SDS011;52214;50.940;13.996;2022-12-10T05:21:51;46.87;;;13.77;;
65572;SDS011;52214;50.940;13.996;2022-12-10T05:24:35;43.45;;;14.70;;
65572;SDS011;52214;50.940;13.996;2022-12-10T05:27:01;49.17;;;14.20;;
65572;SDS011;52214;50.940;13.996;2022-12-10T05:29:26;49.63;;;13.80;;
65572;SDS011;52214;50.940;13.996;2022-12-10T05:31:52;50.45;;;14.18;;
65572;SDS011;52214;50.940;13.996;2022-12-10T05:34:18;48.37;;;15.23;;
65572;SDS011;52214;50.940;13.996;2022-12-10T05:36:43;46.65;;;13.73;;
65572;SDS011;52214;50.940;13.996;2022-12-10T05:39:09;53.13;;;15.93;;
65572;SDS011;52214;50.940;13.996;2022-12-10T05:41:36;47.90;;;14.50;;
65572;SDS011;52214;50.940;13.996;2022-12-10T05:44:03;47.58;;;14.02;;
65572;SDS011;52214;50.940;13.996;2022-12-10T05:46:30;53.97;;;15.40;;
65572;SDS011;52214;50.940;13.996;2022-12-10T05:48:57;44.55;;;14.25;;
65572;SDS011;52214;50.940;13.996;2022-12-10T05:51:25;45.60;;;15.52;;
65572;SDS011;52214;50.940;13.996;2022-12-10T05:53:53;58.37;;;15.03;;
65572;SDS011;52214;50.940;13.996;2022-12-10T05:56:20;51.35;;;14.65;;
65572;SDS011;52214;50.940;13.996;2022-12-10T05:58:48;50.25;;;13.65;;
65572;SDS011;52214;50.940;13.996;2022-12-10T06:01:16;44.92;;;14.02;;
65572;SDS011;52214;50.940;13.996;2022-12-10T06:03:43;46.17;;;13.17;;
65572;SDS011;52214;50.940;13.996;2022-12-10T06:06:09;47.33;;;14.32;;
65572;SDS011;52214;50.940;13.996;2022-12-10T06:08:35;54.65;;;14.75;;
65572;SDS011;52214;50.940;13.996;2022-12-10T06:11:02;52.78;;;15.38;;
65572;SDS011;52214;50.940;13.996;2022-12-10T06:13:29;45.67;;;13.33;;
65572;SDS011;52214;50.940;13.996;2022-12-10T06:15:54;52.70;;;15.27;;
65572;SDS011;52214;50.940;13.996;2022-12-10T06:18:20;52.07;;;14.53;;
65572;SDS011;52214;50.940;13.996;2022-12-10T06:20:46;47.93;;;13.93;;
65572;SDS011;52214;50.940;13.996;2022-12-10T06:23:11;52.97;;;15.07;;
65572;SDS011;52214;50.940;13.996;2022-12-10T06:25:37;46.37;;;13.43;;
65572;SDS011;52214;50.940;13.996;2022-12-10T06:28:04;46.72;;;13.10;;
65572;SDS011;52214;50.940;13.996;2022-12-10T06:30:30;44.88;;;13.55;;
65572;SDS011;52214;50.940;13.996;2022-12-10T06:32:55;47.67;;;13.17;;
65572;SDS011;52214;50.940;13.996;2022-12-10T06:35:21;47.37;;;13.43;;
65572;SDS011;52214;50.940;13.996;2022-12-10T06:37:46;48.65;;;14.48;;
65572;SDS011;52214;50.940;13.996;2022-12-10T06:40:13;53.10;;;14.93;;
65572;SDS011;52214;50.940;13.996;2022-12-10T06:42:39;49.55;;;13.50;;
65572;SDS011;52214;50.940;13.996;2022-12-10T06:45:04;46.00;;;14.40;;
65572;SDS011;52214;50.940;13.996;2022-12-10T06:47:30;52.47;;;13.48;;
65572;SDS011;52214;50.940;13.996;2022-12-10T06:49:55;47.35;;;14.13;;
65572;SDS011;52214;50.940;13.996;2022-12-10T06:52:21;49.57;;;13.03;;
65572;SDS011;52214;50.940;13.996;2022-12-10T06:54:46;44.97;;;14.40;;
65572;SDS011;52214;50.940;13.996;2022-12-10T06:57:12;52.80;;;13.70;;
65572;SDS011;52214;50.940;13.996;2022-12-10T06:59:37;52.22;;;14.27;;
65572;SDS011;52214;50.940;13.996;2022-12-10T07:02:03;50.17;;;13.37;;
65572;SDS011;52214;50.940;13.996;2022-12-10T07:04:28;50.13;;;13.47;;
65572;SDS011;52214;50.940;13.996;2022-12-10T07:06:54;53.78;;;14.77;;
65572;SDS011;52214;50.940;13.996;2022-12-10T07:09:19;53.63;;;14.80;;
65572;SDS011;52214;50.940;13.996;2022-12-10T07:11:45;50.83;;;15.37;;
65572;SDS011;52214;50.940;13.996;2022-12-10T07:14:14;52.60;;;16.35;;
65572;SDS011;52214;50.940;13.996;2022-12-10T07:16:41;54.83;;;15.60;;
65572;SDS011;52214;50.940;13.996;2022-12-10T07:19:08;51.00;;;14.68;;
65572;SDS011;52214;50.940;13.996;2022-12-10T07:21:36;43.70;;;13.88;;
65572;SDS011;52214;50.940;13.996;2022-12-10T07:24:05;49.58;;;14.60;;
65572;SDS011;52214;50.940;13.996;2022-12-10T07:26:35;46.27;;;13.40;;
65572;SDS011;52214;50.940;13.996;2022-12-10T07:29:03;44.88;;;14.02;;
65572;SDS011;52214;50.940;13.996;2022-12-10T07:31:29;50.90;;;15.23;;
65572;SDS011;52214;50.940;13.996;2022-12-10T07:33:57;48.75;;;14.85;;
65572;SDS011;52214;50.940;13.996;2022-12-10T07:36:23;44.80;;;14.02;;
65572;SDS011;52214;50.940;13.996;2022-12-10T07:38:52;52.80;;;15.13;;
65572;SDS011;52214;50.940;13.996;2022-12-10T07:41:19;53.33;;;16.23;;
65572;SDS011;52214;50.940;13.996;2022-12-10T07:43:46;53.05;;;15.18;;
65572;SDS011;52214;50.940;13.996;2022-12-10T07:46:13;47.22;;;14.93;;
65572;SDS011;52214;50.940;13.996;2022-12-10T07:48:42;53.85;;;15.85;;
65572;SDS011;52214;50.940;13.996;2022-12-10T07:51:09;55.33;;;15.77;;
65572;SDS011;52214;50.940;13.996;2022-12-10T07:53:35;56.03;;;17.77;;
65572;SDS011;52214;50.940;13.996;2022-12-10T07:56:01;58.92;;;17.00;;
65572;SDS011;52214;50.940;13.996;2022-12-10T07:58:27;54.53;;;14.57;;
65572;SDS011;52214;50.940;13.996;2022-12-10T08:00:52;55.22;;;15.95;;
65572;SDS011;52214;50.940;13.996;2022-12-10T08:03:18;49.00;;;16.30;;
65572;SDS011;52214;50.940;13.996;2022-12-10T08:05:43;61.70;;;16.20;;
65572;SDS011;52214;50.940;13.996;2022-12-10T08:08:09;63.17;;;17.25;;
65572;SDS011;52214;50.940;13.996;2022-12-10T08:10:35;54.63;;;15.57;;
65572;SDS011;52214;50.940;13.996;2022-12-10T08:13:01;51.95;;;16.05;;
65572;SDS011;52214;50.940;13.996;2022-12-10T08:15:28;57.03;;;17.13;;
65572;SDS011;52214;50.940;13.996;2022-12-10T08:17:54;56.53;;;18.33;;
65572;SDS011;52214;50.940;13.996;2022-12-10T08:20:20;57.90;;;16.80;;
65572;SDS011;52214;50.940;13.996;2022-12-10T08:22:46;59.10;;;16.80;;
65572;SDS011;52214;50.940;13.996;2022-12-10T08:25:12;58.13;;;16.00;;
65572;SDS011;52214;50.940;13.996;2022-12-10T08:27:37;57.60;;;16.90;;
65572;SDS011;52214;50.940;13.996;2022-12-10T08:30:03;67.10;;;17.05;;
65572;SDS011;52214;50.940;13.996;2022-12-10T08:32:29;51.53;;;14.27;;
65572;SDS011;52214;50.940;13.996;2022-12-10T08:34:55;47.20;;;14.63;;
65572;SDS011;52214;50.940;13.996;2022-12-10T08:37:20;56.47;;;16.77;;
65572;SDS011;52214;50.940;13.996;2022-12-10T08:39:46;54.38;;;15.32;;
65572;SDS011;52214;50.940;13.996;2022-12-10T08:42:11;60.97;;;16.63;;
65572;SDS011;52214;50.940;13.996;2022-12-10T08:44:37;54.33;;;16.30;;
65572;SDS011;52214;50.940;13.996;2022-12-10T08:47:03;54.08;;;16.25;;
65572;SDS011;52214;50.940;13.996;2022-12-10T08:49:28;54.00;;;15.47;;
65572;SDS011;52214;50.940;13.996;2022-12-10T08:51:54;54.60;;;15.10;;
65572;SDS011;52214;50.940;13.996;2022-12-10T08:54:19;52.53;;;15.52;;
65572;SDS011;52214;50.940;13.996;2022-12-10T08:56:45;56.70;;;16.77;;
65572;SDS011;52214;50.940;13.996;2022-12-10T08:59:11;49.07;;;15.47;;
65572;SDS011;52214;50.940;13.996;2022-12-10T09:01:36;58.47;;;16.63;;
65572;SDS011;52214;50.940;13.996;2022-12-10T09:04:02;54.87;;;16.77;;
65572;SDS011;52214;50.940;13.996;2022-12-10T09:06:27;56.50;;;16.73;;
65572;SDS011;52214;50.940;13.996;2022-12-10T09:08:53;52.50;;;16.55;;
65572;SDS011;52214;50.940;13.996;2022-12-10T09:11:20;56.20;;;16.40;;
65572;SDS011;52214;50.940;13.996;2022-12-10T09:13:49;56.22;;;15.27;;
65572;SDS011;52214;50.940;13.996;2022-12-10T09:16:15;53.70;;;16.02;;
65572;SDS011;52214;50.940;13.996;2022-12-10T09:18:41;47.55;;;15.38;;
65572;SDS011;52214;50.940;13.996;2022-12-10T09:21:08;50.30;;;15.50;;
65572;SDS011;52214;50.940;13.996;2022-12-10T09:23:35;50.42;;;15.88;;
65572;SDS011;52214;50.940;13.996;2022-12-10T09:26:01;58.05;;;17.45;;
65572;SDS011;52214;50.940;13.996;2022-12-10T09:28:30;49.83;;;16.27;;
65572;SDS011;52214;50.940;13.996;2022-12-10T09:30:56;54.45;;;16.63;;
65572;SDS011;52214;50.940;13.996;2022-12-10T09:33:23;52.20;;;17.00;;
65572;SDS011;52214;50.940;13.996;2022-12-10T09:35:49;61.63;;;15.88;;
65572;SDS011;52214;50.940;13.996;2022-12-10T09:38:14;60.60;;;19.23;;
65572;SDS011;52214;50.940;13.996;2022-12-10T09:40:42;62.63;;;16.67;;
65572;SDS011;52214;50.940;13.996;2022-12-10T09:48:43;60.33;;;18.23;;
65572;SDS011;52214;50.940;13.996;2022-12-10T09:51:22;60.70;;;17.45;;
65572;SDS011;52214;50.940;13.996;2022-12-10T09:53:51;59.83;;;17.40;;
65572;SDS011;52214;50.940;13.996;2022-12-10T09:56:28;60.47;;;17.33;;
65572;SDS011;52214;50.940;13.996;2022-12-10T09:58:57;62.90;;;16.42;;
65572;SDS011;52214;50.940;13.996;2022-12-10T10:01:27;60.22;;;17.15;;
65572;SDS011;52214;50.940;13.996;2022-12-10T10:03:55;60.72;;;17.27;;
65572;SDS011;52214;50.940;13.996;2022-12-10T10:06:21;58.63;;;17.87;;
65572;SDS011;52214;50.940;13.996;2022-12-10T10:08:51;57.03;;;16.65;;
65572;SDS011;52214;50.940;13.996;2022-12-10T10:11:20;66.25;;;18.30;;
65572;SDS011;52214;50.940;13.996;2022-12-10T10:14:04;60.23;;;17.90;;
65572;SDS011;52214;50.940;13.996;2022-12-10T10:16:48;60.00;;;17.55;;
65572;SDS011;52214;50.940;13.996;2022-12-10T10:19:19;68.47;;;21.50;;
65572;SDS011;52214;50.940;13.996;2022-12-10T10:21:50;64.40;;;19.33;;
65572;SDS011;52214;50.940;13.996;2022-12-10T10:24:17;62.57;;;18.37;;
65572;SDS011;52214;50.940;13.996;2022-12-10T10:26:46;58.30;;;17.17;;
65572;SDS011;52214;50.940;13.996;2022-12-10T10:29:12;67.75;;;19.17;;
65572;SDS011;52214;50.940;13.996;2022-12-10T10:31:41;67.40;;;19.15;;
65572;SDS011;52214;50.940;13.996;2022-12-10T10:34:18;64.93;;;20.80;;
65572;SDS011;52214;50.940;13.996;2022-12-10T10:36:45;55.30;;;16.20;;
65572;SDS011;52214;50.940;13.996;2022-12-10T10:41:44;61.38;;;21.98;;
65572;SDS011;52214;50.940;13.996;2022-12-10T10:44:18;54.63;;;16.25;;
65572;SDS011;52214;50.940;13.996;2022-12-10T10:46:47;58.50;;;17.10;;
65572;SDS011;52214;50.940;13.996;2022-12-10T10:49:19;60.70;;;18.05;;
65572;SDS011;52214;50.940;13.996;2022-12-10T10:51:50;54.92;;;15.82;;
65572;SDS011;52214;50.940;13.996;2022-12-10T10:54:30;57.85;;;18.50;;
65572;SDS011;52214;50.940;13.996;2022-12-10T10:57:01;55.63;;;17.63;;
65572;SDS011;52214;50.940;13.996;2022-12-10T10:59:30;56.22;;;16.02;;
65572;SDS011;52214;50.940;13.996;2022-12-10T11:02:23;62.28;;;17.75;;
65572;SDS011;52214;50.940;13.996;2022-12-10T11:04:55;48.97;;;15.27;;
65572;SDS011;52214;50.940;13.996;2022-12-10T11:07:38;50.35;;;15.55;;
65572;SDS011;52214;50.940;13.996;2022-12-10T11:10:27;57.00;;;16.40;;
65572;SDS011;52214;50.940;13.996;2022-12-10T11:15:35;61.53;;;16.15;;
65572;SDS011;52214;50.940;13.996;2022-12-10T11:18:03;56.88;;;15.93;;
65572;SDS011;52214;50.940;13.996;2022-12-10T11:23:48;52.78;;;15.00;;
65572;SDS011;52214;50.940;13.996;2022-12-10T11:26:33;53.15;;;17.38;;
65572;SDS011;52214;50.940;13.996;2022-12-10T11:31:54;54.87;;;15.63;;
65572;SDS011;52214;50.940;13.996;2022-12-10T11:39:54;52.13;;;17.20;;
65572;SDS011;52214;50.940;13.996;2022-12-10T11:42:26;53.92;;;15.32;;
65572;SDS011;52214;50.940;13.996;2022-12-10T11:45:02;58.83;;;16.77;;
65572;SDS011;52214;50.940;13.996;2022-12-10T11:56:47;43.53;;;14.20;;
65572;SDS011;52214;50.940;13.996;2022-12-10T11:59:36;55.00;;;18.23;;
65572;SDS011;52214;50.940;13.996;2022-12-10T12:02:31;49.85;;;15.93;;
65572;SDS011;52214;50.940;13.996;2022-12-10T12:08:19;50.70;;;14.52;;
65572;SDS011;52214;50.940;13.996;2022-12-10T12:11:01;42.40;;;14.77;;
65572;SDS011;52214;50.940;13.996;2022-12-10T12:14:13;46.30;;;15.23;;
65572;SDS011;52214;50.940;13.996;2022-12-10T12:16:22;49.25;;;16.48;;
65572;SDS011;52214;50.940;13.996;2022-12-10T12:18:57;51.28;;;15.68;;
65572;SDS011;52214;50.940;13.996;2022-12-10T12:21:30;49.03;;;15.85;;
65572;SDS011;52214;50.940;13.996;2022-12-10T12:24:30;49.10;;;14.83;;
65572;SDS011;52214;50.940;13.996;2022-12-10T12:26:56;47.03;;;15.63;;
65572;SDS011;52214;50.940;13.996;2022-12-10T12:29:27;52.38;;;15.85;;
65572;SDS011;52214;50.940;13.996;2022-12-10T12:31:57;44.53;;;14.30;;
65572;SDS011;52214;50.940;13.996;2022-12-10T12:36:54;48.83;;;15.15;;
65572;SDS011;52214;50.940;13.996;2022-12-10T12:45:19;46.27;;;17.13;;
65572;SDS011;52214;50.940;13.996;2022-12-10T12:53:51;48.85;;;14.20;;
65572;SDS011;52214;50.940;13.996;2022-12-10T13:01:51;39.03;;;13.27;;
65572;SDS011;52214;50.940;13.996;2022-12-10T13:04:23;33.97;;;13.07;;
65572;SDS011;52214;50.940;13.996;2022-12-10T13:10:07;39.28;;;13.43;;
65572;SDS011;52214;50.940;13.996;2022-12-10T13:13:05;36.65;;;12.02;;
65572;SDS011;52214;50.940;13.996;2022-12-10T13:15:42;33.53;;;12.35;;
65572;SDS011;52214;50.940;13.996;2022-12-10T13:28:16;39.07;;;12.17;;
65572;SDS011;52214;50.940;13.996;2022-12-10T13:30:47;32.70;;;12.13;;
65572;SDS011;52214;50.940;13.996;2022-12-10T13:33:48;38.60;;;13.82;;
65572;SDS011;52214;50.940;13.996;2022-12-10T13:36:27;34.65;;;12.13;;
65572;SDS011;52214;50.940;13.996;2022-12-10T13:41:28;37.10;;;12.52;;
65572;SDS011;52214;50.940;13.996;2022-12-10T13:50:02;41.20;;;12.18;;
65572;SDS011;52214;50.940;13.996;2022-12-10T13:52:50;38.15;;;11.77;;
65572;SDS011;52214;50.940;13.996;2022-12-10T13:55:54;34.08;;;11.88;;
65572;SDS011;52214;50.940;13.996;2022-12-10T14:06:22;38.08;;;11.98;;
65572;SDS011;52214;50.940;13.996;2022-12-10T14:11:27;32.85;;;11.13;;
65572;SDS011;52214;50.940;13.996;2022-12-10T14:13:56;33.75;;;12.57;;
65572;SDS011;52214;50.940;13.996;2022-12-10T14:16:23;37.00;;;12.25;;
65572;SDS011;52214;50.940;13.996;2022-12-10T14:18:55;36.72;;;12.35;;
65572;SDS011;52214;50.940;13.996;2022-12-10T14:21:32;35.40;;;12.20;;
65572;SDS011;52214;50.940;13.996;2022-12-10T14:24:04;37.77;;;12.47;;
65572;SDS011;52214;50.940;13.996;2022-12-10T14:26:35;29.75;;;11.05;;
65572;SDS011;52214;50.940;13.996;2022-12-10T14:29:11;34.38;;;11.75;;
65572;SDS011;52214;50.940;13.996;2022-12-10T14:31:46;32.72;;;11.50;;
65572;SDS011;52214;50.940;13.996;2022-12-10T14:34:17;35.07;;;10.50;;
65572;SDS011;52214;50.940;13.996;2022-12-10T14:36:47;36.97;;;12.70;;
65572;SDS011;52214;50.940;13.996;2022-12-10T14:39:19;34.47;;;13.10;;
65572;SDS011;52214;50.940;13.996;2022-12-10T14:41:50;38.10;;;11.48;;
65572;SDS011;52214;50.940;13.996;2022-12-10T14:44:18;35.27;;;11.40;;
65572;SDS011;52214;50.940;13.996;2022-12-10T14:46:48;30.95;;;10.63;;
65572;SDS011;52214;50.940;13.996;2022-12-10T14:49:15;30.17;;;10.52;;
65572;SDS011;52214;50.940;13.996;2022-12-10T14:51:44;37.15;;;14.43;;
65572;SDS011;52214;50.940;13.996;2022-12-10T14:57:06;33.38;;;10.77;;
65572;SDS011;52214;50.940;13.996;2022-12-10T14:59:42;30.52;;;11.35;;
65572;SDS011;52214;50.940;13.996;2022-12-10T15:02:24;35.97;;;12.02;;
65572;SDS011;52214;50.940;13.996;2022-12-10T15:04:53;30.73;;;11.05;;
65572;SDS011;52214;50.940;13.996;2022-12-10T15:07:20;32.53;;;12.52;;
65572;SDS011;52214;50.940;13.996;2022-12-10T15:09:49;30.98;;;11.30;;
65572;SDS011;52214;50.940;13.996;2022-12-10T15:12:27;30.17;;;10.23;;
65572;SDS011;52214;50.940;13.996;2022-12-10T15:15:12;33.42;;;11.07;;
65572;SDS011;52214;50.940;13.996;2022-12-10T15:17:53;34.30;;;10.85;;
65572;SDS011;52214;50.940;13.996;2022-12-10T15:20:26;31.08;;;11.43;;
65572;SDS011;52214;50.940;13.996;2022-12-10T15:23:06;29.63;;;11.40;;
65572;SDS011;52214;50.940;13.996;2022-12-10T15:25:50;30.00;;;10.85;;
65572;SDS011;52214;50.940;13.996;2022-12-10T15:28:42;31.35;;;10.98;;
65572;SDS011;52214;50.940;13.996;2022-12-10T15:36:41;31.65;;;12.15;;
65572;SDS011;52214;50.940;13.996;2022-12-10T15:49:50;40.97;;;12.65;;
65572;SDS011;52214;50.940;13.996;2022-12-10T15:52:35;43.47;;;14.10;;
65572;SDS011;52214;50.940;13.996;2022-12-10T15:55:00;82.30;;;26.48;;
65572;SDS011;52214;50.940;13.996;2022-12-10T16:00:07;45.00;;;13.70;;
65572;SDS011;52214;50.940;13.996;2022-12-10T16:03:00;41.95;;;12.88;;
65572;SDS011;52214;50.940;13.996;2022-12-10T16:05:29;31.70;;;10.88;;
65572;SDS011;52214;50.940;13.996;2022-12-10T16:07:58;37.33;;;12.82;;
65572;SDS011;52214;50.940;13.996;2022-12-10T16:10:27;36.22;;;12.38;;
65572;SDS011;52214;50.940;13.996;2022-12-10T16:12:57;40.55;;;13.73;;
65572;SDS011;52214;50.940;13.996;2022-12-10T16:15:24;45.47;;;13.82;;
65572;SDS011;52214;50.940;13.996;2022-12-10T16:17:52;43.15;;;15.65;;
65572;SDS011;52214;50.940;13.996;2022-12-10T16:20:27;45.87;;;14.50;;
65572;SDS011;52214;50.940;13.996;2022-12-10T16:22:55;46.22;;;14.82;;
65572;SDS011;52214;50.940;13.996;2022-12-10T16:25:22;44.45;;;13.27;;
65572;SDS011;52214;50.940;13.996;2022-12-10T16:27:49;50.17;;;14.47;;